Aviation Digital Data Service (ADDS)

Output produced by METARs form (0915 UTC 19 April 2019)
found at http://www.aviationweather.gov/metar/data/
 
Forecast for: RJFR (KITAKYUSHU/KOKUR, JP)
Text: TAF RJFR 190506Z 1906/2012 36010KT 9999 FEW030
Forecast period: 0600 to 2100 UTC 19 April 2019
Forecast type: FROM: standard forecast or significant change
Winds: from the N (360 degrees) at 12 MPH (10 knots; 5.1 m/s)
Visibility: 6 or more miles 10+ km)
Ceiling: at least 12,000 feet AGL
Clouds: few clouds at 3000 feet AGL
Weather: no significant weather forecast for this period
Text: BECMG 1921/2000 10006KT
Forecast period: 2100 UTC 19 April 2019 to 0600 UTC 20 April 2019
Forecast type: BECOMING: Conditions expected to become as follows by 0000 UTC 20 April 2019
Winds: from the E (100 degrees) at 7 MPH (6 knots; 3.1 m/s)
Visibility: 6 or more miles 10+ km)
Ceiling: at least 12,000 feet AGL
Clouds: few clouds at 3000 feet AGL
Weather: no significant weather forecast for this period
Text: BECMG 2006/2009 07005KT
Forecast period: 0600 to 1200 UTC 20 April 2019
Forecast type: BECOMING: Conditions expected to become as follows by 0900 UTC 20 April 2019
Winds: from the ENE (70 degrees) at 6 MPH (5 knots; 2.6 m/s)
Visibility: 6 or more miles 10+ km)
Ceiling: at least 12,000 feet AGL
Clouds: few clouds at 3000 feet AGL
Weather: no significant weather forecast for this period